DLH135 YSSY-YSCB
Flight info
| Callsign | DLH135 |
|---|---|
| Flight time | 0h 38m |
| Altitude | 32000 |
| Route | ABBEY3 WOL H65 LEECE LEECE1Y |
| Aircraft | A320/M-SDE2E3FGHIRWXY/LB1 |
Departure
| Time | 2026-05-05 07:35 |
|---|---|
| Airport | Sydney Kingsford Smith International Airport (YSSY) |
Arrival
| Time | 2026-05-05 08:14 |
|---|---|
| Airport | Canberra Airport (YSCB) |
| Time | Latitude | Longitude | Altitude | Speed | Heading |
|---|---|---|---|---|---|
| 2026-05-05 07:02 | -33.93861 | 151.16965 | 24 ft | 0 kts | 253° |
| 2026-05-05 07:21 | -33.93861 | 151.16967 | -3 ft | 1 kts | 254° |
| 2026-05-05 07:22 | -33.93857 | 151.16987 | 24 ft | 3 kts | 251° |
| 2026-05-05 07:22 | -33.93851 | 151.16995 | 26 ft | 3 kts | 258° |
| 2026-05-05 07:22 | -33.93850 | 151.16989 | 26 ft | 3 kts | 280° |
| 2026-05-05 07:22 | -33.93851 | 151.17011 | 26 ft | 2 kts | 245° |
| 2026-05-05 07:23 | -33.93843 | 151.17030 | 24 ft | 3 kts | 244° |
| 2026-05-05 07:23 | -33.93833 | 151.17051 | 27 ft | 3 kts | 231° |
| 2026-05-05 07:23 | -33.93823 | 151.17063 | 27 ft | 2 kts | 174° |
| 2026-05-05 07:23 | -33.93818 | 151.17063 | 26 ft | 0 kts | 161° |
| 2026-05-05 07:27 | -33.93822 | 151.17064 | 27 ft | 0 kts | 164° |
| 2026-05-05 07:28 | -33.93853 | 151.17073 | 27 ft | 7 kts | 167° |
| 2026-05-05 07:28 | -33.93879 | 151.17080 | 24 ft | 2 kts | 168° |
| 2026-05-05 07:28 | -33.93906 | 151.17087 | 24 ft | 0 kts | 168° |
| 2026-05-05 07:28 | -33.93923 | 151.17091 | 26 ft | 6 kts | 168° |
| 2026-05-05 07:29 | -33.93982 | 151.17131 | 23 ft | 15 kts | 109° |
| 2026-05-05 07:29 | -33.93909 | 151.17208 | 20 ft | 19 kts | 347° |
| 2026-05-05 07:29 | -33.93766 | 151.17171 | 19 ft | 22 kts | 348° |
| 2026-05-05 07:29 | -33.93672 | 151.17146 | 23 ft | 12 kts | 348° |
| 2026-05-05 07:30 | -33.93581 | 151.17123 | 26 ft | 15 kts | 348° |
| 2026-05-05 07:30 | -33.93364 | 151.17066 | 26 ft | 16 kts | 341° |
| 2026-05-05 07:30 | -33.93284 | 151.16993 | 25 ft | 13 kts | 305° |
| 2026-05-05 07:31 | -33.93178 | 151.16943 | 27 ft | 20 kts | 351° |
| 2026-05-05 07:31 | -33.93081 | 151.16918 | 25 ft | 16 kts | 348° |
| 2026-05-05 07:31 | -33.93039 | 151.16907 | 25 ft | 3 kts | 348° |
| 2026-05-05 07:31 | -33.93024 | 151.16903 | 24 ft | 2 kts | 348° |
| 2026-05-05 07:32 | -33.93006 | 151.16899 | 26 ft | 3 kts | 348° |
| 2026-05-05 07:32 | -33.92994 | 151.16896 | 24 ft | 0 kts | 351° |
| 2026-05-05 07:32 | -33.92980 | 151.16904 | 25 ft | 4 kts | 43° |
| 2026-05-05 07:32 | -33.92976 | 151.16930 | 24 ft | 5 kts | 85° |
| 2026-05-05 07:33 | -33.92973 | 151.16989 | 23 ft | 9 kts | 86° |
| 2026-05-05 07:33 | -33.92968 | 151.17031 | 23 ft | 3 kts | 81° |
| 2026-05-05 07:33 | -33.92964 | 151.17060 | 23 ft | 4 kts | 80° |
| 2026-05-05 07:33 | -33.92959 | 151.17098 | 24 ft | 5 kts | 86° |
| 2026-05-05 07:34 | -33.92984 | 151.17161 | 23 ft | 11 kts | 144° |
| 2026-05-05 07:34 | -33.93070 | 151.17194 | 24 ft | 26 kts | 166° |
| 2026-05-05 07:34 | -33.93514 | 151.17313 | 19 ft | 103 kts | 167° |
| 2026-05-05 07:34 | -33.94429 | 151.17552 | 83 ft | 157 kts | 167° |
| 2026-05-05 07:35 | -33.95547 | 151.17852 | 554 ft | 168 kts | 166° |
| 2026-05-05 07:35 | -33.96678 | 151.17984 | 1415 ft | 160 kts | 182° |
| 2026-05-05 07:35 | -33.97860 | 151.17893 | 1948 ft | 187 kts | 184° |
| 2026-05-05 07:35 | -33.99219 | 151.17770 | 2568 ft | 202 kts | 185° |
| 2026-05-05 07:36 | -34.00687 | 151.17653 | 3235 ft | 219 kts | 184° |
| 2026-05-05 07:36 | -34.02241 | 151.17568 | 4083 ft | 227 kts | 180° |
| 2026-05-05 07:36 | -34.03904 | 151.17867 | 4675 ft | 252 kts | 169° |
| 2026-05-05 07:36 | -34.05641 | 151.18415 | 4953 ft | 261 kts | 167° |
| 2026-05-05 07:37 | -34.07364 | 151.19010 | 5084 ft | 263 kts | 166° |
| 2026-05-05 07:37 | -34.09147 | 151.19625 | 5771 ft | 269 kts | 167° |
| 2026-05-05 07:37 | -34.10961 | 151.20243 | 6936 ft | 273 kts | 167° |
| 2026-05-05 07:37 | -34.12803 | 151.20865 | 8029 ft | 277 kts | 167° |
| 2026-05-05 07:38 | -34.14662 | 151.21491 | 9188 ft | 279 kts | 168° |
| 2026-05-05 07:38 | -34.16562 | 151.22053 | 10216 ft | 284 kts | 173° |
| 2026-05-05 07:38 | -34.18588 | 151.22192 | 10775 ft | 302 kts | 188° |
| 2026-05-05 07:38 | -34.20660 | 151.21592 | 11476 ft | 311 kts | 205° |
| 2026-05-05 07:39 | -34.22526 | 151.20269 | 12427 ft | 313 kts | 219° |
| 2026-05-05 07:39 | -34.24197 | 151.18557 | 13427 ft | 317 kts | 224° |
| 2026-05-05 07:39 | -34.25775 | 151.16684 | 14342 ft | 321 kts | 227° |
| 2026-05-05 07:39 | -34.27330 | 151.14709 | 15181 ft | 327 kts | 228° |
| 2026-05-05 07:40 | -34.28894 | 151.12680 | 16026 ft | 332 kts | 229° |
| 2026-05-05 07:40 | -34.30486 | 151.10627 | 16886 ft | 338 kts | 228° |
| 2026-05-05 07:40 | -34.32117 | 151.08549 | 17750 ft | 343 kts | 228° |
| 2026-05-05 07:40 | -34.33783 | 151.06455 | 18593 ft | 348 kts | 228° |
| 2026-05-05 07:41 | -34.35479 | 151.04342 | 19329 ft | 352 kts | 228° |
| 2026-05-05 07:41 | -34.37198 | 151.02210 | 20087 ft | 356 kts | 228° |
| 2026-05-05 07:41 | -34.38942 | 151.00051 | 20807 ft | 361 kts | 228° |
| 2026-05-05 07:41 | -34.40709 | 150.97864 | 21519 ft | 366 kts | 228° |
| 2026-05-05 07:42 | -34.42501 | 150.95643 | 22215 ft | 371 kts | 228° |
| 2026-05-05 07:42 | -34.44317 | 150.93391 | 22915 ft | 376 kts | 228° |
| 2026-05-05 07:42 | -34.46159 | 150.91103 | 23601 ft | 381 kts | 229° |
| 2026-05-05 07:42 | -34.48024 | 150.88786 | 24193 ft | 386 kts | 229° |
| 2026-05-05 07:43 | -34.49900 | 150.86453 | 24827 ft | 388 kts | 229° |
| 2026-05-05 07:43 | -34.51787 | 150.84104 | 25488 ft | 389 kts | 229° |
| 2026-05-05 07:43 | -34.53680 | 150.81747 | 26065 ft | 392 kts | 230° |
| 2026-05-05 07:43 | -34.55404 | 150.79200 | 26594 ft | 391 kts | 240° |
| 2026-05-05 07:44 | -34.56710 | 150.76313 | 27135 ft | 390 kts | 248° |
| 2026-05-05 07:44 | -34.57861 | 150.73323 | 27668 ft | 393 kts | 248° |
| 2026-05-05 07:44 | -34.58995 | 150.70297 | 28165 ft | 396 kts | 248° |
| 2026-05-05 07:44 | -34.60126 | 150.67238 | 28665 ft | 398 kts | 249° |
| 2026-05-05 07:45 | -34.61254 | 150.64154 | 29161 ft | 401 kts | 249° |
| 2026-05-05 07:45 | -34.62382 | 150.61049 | 29648 ft | 403 kts | 249° |
| 2026-05-05 07:45 | -34.63513 | 150.57922 | 30116 ft | 406 kts | 249° |
| 2026-05-05 07:45 | -34.64647 | 150.54777 | 30528 ft | 408 kts | 250° |
| 2026-05-05 07:46 | -34.65786 | 150.51612 | 30937 ft | 410 kts | 250° |
| 2026-05-05 07:46 | -34.66914 | 150.48475 | 31416 ft | 409 kts | 250° |
| 2026-05-05 07:46 | -34.68050 | 150.45314 | 31933 ft | 408 kts | 250° |
| 2026-05-05 07:46 | -34.69185 | 150.42149 | 32149 ft | 409 kts | 250° |
| 2026-05-05 07:47 | -34.71447 | 150.35825 | 32186 ft | 408 kts | 250° |
| 2026-05-05 07:47 | -34.73707 | 150.29494 | 32181 ft | 408 kts | 250° |
| 2026-05-05 07:48 | -34.75959 | 150.23170 | 32202 ft | 407 kts | 250° |
| 2026-05-05 07:48 | -34.77075 | 150.20038 | 31845 ft | 402 kts | 250° |
| 2026-05-05 07:48 | -34.78180 | 150.16932 | 31366 ft | 397 kts | 250° |
| 2026-05-05 07:49 | -34.79269 | 150.13864 | 30841 ft | 394 kts | 249° |
| 2026-05-05 07:49 | -34.80353 | 150.10807 | 30303 ft | 393 kts | 249° |
| 2026-05-05 07:49 | -34.81432 | 150.07764 | 29693 ft | 390 kts | 249° |
| 2026-05-05 07:49 | -34.82503 | 150.04742 | 29158 ft | 387 kts | 249° |
| 2026-05-05 07:50 | -34.83561 | 150.01751 | 28622 ft | 383 kts | 249° |
| 2026-05-05 07:50 | -34.84610 | 149.98782 | 28097 ft | 380 kts | 249° |
| 2026-05-05 07:50 | -34.85648 | 149.95842 | 27568 ft | 377 kts | 248° |
| 2026-05-05 07:50 | -34.86678 | 149.92923 | 27042 ft | 374 kts | 248° |
| 2026-05-05 07:51 | -34.87700 | 149.90021 | 26511 ft | 372 kts | 248° |
| 2026-05-05 07:51 | -34.88825 | 149.87186 | 25984 ft | 372 kts | 240° |
| 2026-05-05 07:51 | -34.90478 | 149.84756 | 25478 ft | 376 kts | 224° |
| 2026-05-05 07:51 | -34.92570 | 149.82828 | 24913 ft | 378 kts | 217° |
| 2026-05-05 07:52 | -34.94761 | 149.81045 | 24366 ft | 378 kts | 216° |
| 2026-05-05 07:52 | -34.96953 | 149.79289 | 23818 ft | 377 kts | 216° |
| 2026-05-05 07:52 | -34.99142 | 149.77528 | 23181 ft | 376 kts | 216° |
| 2026-05-05 07:52 | -35.01307 | 149.75777 | 22612 ft | 372 kts | 216° |
| 2026-05-05 07:53 | -35.03435 | 149.74048 | 22071 ft | 369 kts | 216° |
| 2026-05-05 07:53 | -35.05561 | 149.72317 | 21521 ft | 365 kts | 216° |
| 2026-05-05 07:53 | -35.07663 | 149.70600 | 20989 ft | 362 kts | 216° |
| 2026-05-05 07:53 | -35.09749 | 149.68894 | 20451 ft | 359 kts | 216° |
| 2026-05-05 07:54 | -35.11820 | 149.67198 | 19903 ft | 357 kts | 216° |
| 2026-05-05 07:54 | -35.13206 | 149.66063 | 19537 ft | 355 kts | 216° |
| 2026-05-05 07:54 | -35.15252 | 149.64387 | 18991 ft | 353 kts | 216° |
| 2026-05-05 07:54 | -35.17282 | 149.62722 | 18459 ft | 350 kts | 216° |
| 2026-05-05 07:55 | -35.19947 | 149.60534 | 17696 ft | 346 kts | 216° |
| 2026-05-05 07:55 | -35.21298 | 149.59426 | 17333 ft | 343 kts | 216° |
| 2026-05-05 07:55 | -35.23243 | 149.57827 | 16806 ft | 339 kts | 216° |
| 2026-05-05 07:55 | -35.25192 | 149.56225 | 16284 ft | 336 kts | 215° |
| 2026-05-05 07:56 | -35.27119 | 149.54640 | 15766 ft | 333 kts | 215° |
| 2026-05-05 07:56 | -35.29031 | 149.53066 | 15249 ft | 330 kts | 214° |
| 2026-05-05 07:56 | -35.30927 | 149.51505 | 14734 ft | 327 kts | 214° |
| 2026-05-05 07:56 | -35.32804 | 149.49957 | 14140 ft | 324 kts | 213° |
| 2026-05-05 07:57 | -35.34681 | 149.48407 | 13673 ft | 324 kts | 214° |
| 2026-05-05 07:57 | -35.36533 | 149.46878 | 13166 ft | 319 kts | 214° |
| 2026-05-05 07:57 | -35.38362 | 149.45370 | 12679 ft | 315 kts | 214° |
| 2026-05-05 07:57 | -35.40170 | 149.43877 | 12187 ft | 311 kts | 214° |
| 2026-05-05 07:58 | -35.41955 | 149.42402 | 11707 ft | 308 kts | 214° |
| 2026-05-05 07:58 | -35.43722 | 149.40940 | 11231 ft | 305 kts | 214° |
| 2026-05-05 07:58 | -35.45471 | 149.39492 | 10727 ft | 303 kts | 213° |
| 2026-05-05 07:58 | -35.47224 | 149.38042 | 10146 ft | 304 kts | 213° |
| 2026-05-05 07:59 | -35.48936 | 149.36623 | 9979 ft | 289 kts | 213° |
| 2026-05-05 07:59 | -35.50567 | 149.35269 | 9716 ft | 279 kts | 213° |
| 2026-05-05 07:59 | -35.52180 | 149.33930 | 9157 ft | 280 kts | 213° |
| 2026-05-05 07:59 | -35.53762 | 149.32587 | 8851 ft | 272 kts | 216° |
| 2026-05-05 08:00 | -35.55011 | 149.30908 | 8635 ft | 264 kts | 238° |
| 2026-05-05 08:00 | -35.55590 | 149.28817 | 8468 ft | 256 kts | 255° |
| 2026-05-05 08:00 | -35.55866 | 149.26703 | 8325 ft | 245 kts | 259° |
| 2026-05-05 08:00 | -35.56081 | 149.24674 | 8202 ft | 235 kts | 260° |
| 2026-05-05 08:01 | -35.56058 | 149.22682 | 7921 ft | 236 kts | 279° |
| 2026-05-05 08:01 | -35.55232 | 149.20951 | 7558 ft | 242 kts | 317° |
| 2026-05-05 08:01 | -35.53782 | 149.19910 | 7265 ft | 243 kts | 336° |
| 2026-05-05 08:01 | -35.52143 | 149.19429 | 6962 ft | 243 kts | 355° |
| 2026-05-05 08:02 | -35.50462 | 149.19412 | 6699 ft | 241 kts | 1° |
| 2026-05-05 08:02 | -35.48803 | 149.19440 | 6475 ft | 235 kts | 360° |
| 2026-05-05 08:02 | -35.47199 | 149.19439 | 6286 ft | 227 kts | 359° |
| 2026-05-05 08:02 | -35.45635 | 149.19433 | 6077 ft | 223 kts | 359° |
| 2026-05-05 08:03 | -35.44096 | 149.19429 | 5892 ft | 216 kts | 359° |
| 2026-05-05 08:03 | -35.42649 | 149.19429 | 5762 ft | 202 kts | 360° |
| 2026-05-05 08:03 | -35.41282 | 149.19431 | 5477 ft | 198 kts | 359° |
| 2026-05-05 08:03 | -35.39966 | 149.19034 | 5392 ft | 196 kts | 326° |
| 2026-05-05 08:04 | -35.39108 | 149.17788 | 4962 ft | 194 kts | 288° |
| 2026-05-05 08:04 | -35.39101 | 149.16200 | 4582 ft | 187 kts | 246° |
| 2026-05-05 08:04 | -35.39829 | 149.14898 | 4507 ft | 187 kts | 227° |
| 2026-05-05 08:04 | -35.40754 | 149.13753 | 4500 ft | 189 kts | 221° |
| 2026-05-05 08:05 | -35.41905 | 149.13035 | 4503 ft | 188 kts | 191° |
| 2026-05-05 08:05 | -35.43204 | 149.12837 | 4503 ft | 189 kts | 183° |
| 2026-05-05 08:05 | -35.44517 | 149.12739 | 4502 ft | 189 kts | 182° |
| 2026-05-05 08:05 | -35.45833 | 149.12652 | 4500 ft | 191 kts | 182° |
| 2026-05-05 08:06 | -35.47222 | 149.12659 | 4467 ft | 206 kts | 166° |
| 2026-05-05 08:06 | -35.48439 | 149.13519 | 4497 ft | 203 kts | 128° |
| 2026-05-05 08:06 | -35.48918 | 149.14974 | 4521 ft | 172 kts | 88° |
| 2026-05-05 08:06 | -35.48527 | 149.16176 | 4549 ft | 139 kts | 43° |
| 2026-05-05 08:07 | -35.47774 | 149.16808 | 4544 ft | 129 kts | 27° |
| 2026-05-05 08:07 | -35.46984 | 149.17334 | 4505 ft | 131 kts | 37° |
| 2026-05-05 08:07 | -35.46462 | 149.18243 | 4514 ft | 131 kts | 56° |
| 2026-05-05 08:07 | -35.45904 | 149.19126 | 4508 ft | 131 kts | 49° |
| 2026-05-05 08:08 | -35.45111 | 149.19546 | 4491 ft | 128 kts | 355° |
| 2026-05-05 08:08 | -35.44217 | 149.19503 | 4522 ft | 130 kts | 358° |
| 2026-05-05 08:08 | -35.43313 | 149.19466 | 4509 ft | 130 kts | 356° |
| 2026-05-05 08:08 | -35.42403 | 149.19451 | 4505 ft | 131 kts | 359° |
| 2026-05-05 08:09 | -35.41489 | 149.19459 | 4502 ft | 131 kts | 359° |
| 2026-05-05 08:09 | -35.40580 | 149.19454 | 4502 ft | 131 kts | 358° |
| 2026-05-05 08:09 | -35.40371 | 149.19452 | 4502 ft | 131 kts | 359° |
| 2026-05-05 08:09 | -35.39876 | 149.19448 | 4498 ft | 131 kts | 358° |
| 2026-05-05 08:10 | -35.39727 | 149.19446 | 4499 ft | 131 kts | 359° |
| 2026-05-05 08:10 | -35.41828 | 149.19509 | 4002 ft | 128 kts | 355° |
| 2026-05-05 08:10 | -35.40948 | 149.19434 | 4129 ft | 127 kts | 356° |
| 2026-05-05 08:10 | -35.40060 | 149.19419 | 3899 ft | 128 kts | 359° |
| 2026-05-05 08:11 | -35.39170 | 149.19434 | 3551 ft | 128 kts | 359° |
| 2026-05-05 08:11 | -35.38295 | 149.19439 | 3273 ft | 122 kts | 360° |
| 2026-05-05 08:11 | -35.37461 | 149.19441 | 3111 ft | 119 kts | 358° |
| 2026-05-05 08:11 | -35.36637 | 149.19441 | 2908 ft | 116 kts | 355° |
| 2026-05-05 08:12 | -35.35849 | 149.19439 | 2766 ft | 112 kts | 0° |
| 2026-05-05 08:12 | -35.35047 | 149.19442 | 2606 ft | 118 kts | 360° |
| 2026-05-05 08:12 | -35.34233 | 149.19443 | 2451 ft | 116 kts | 358° |
| 2026-05-05 08:12 | -35.33430 | 149.19442 | 2284 ft | 115 kts | 360° |
| 2026-05-05 08:13 | -35.32610 | 149.19443 | 2131 ft | 118 kts | 359° |
| 2026-05-05 08:13 | -35.31799 | 149.19443 | 1987 ft | 116 kts | 359° |
| 2026-05-05 08:13 | -35.31009 | 149.19445 | 1883 ft | 107 kts | 0° |
| 2026-05-05 08:13 | -35.30359 | 149.19448 | 1877 ft | 79 kts | 1° |
| 2026-05-05 08:14 | -35.30021 | 149.19459 | 1880 ft | 34 kts | 1° |
| 2026-05-05 08:14 | -35.29809 | 149.19445 | 1880 ft | 28 kts | 1° |
| 2026-05-05 08:14 | -35.29661 | 149.19446 | 1884 ft | 18 kts | 357° |
| 2026-05-05 08:14 | -35.29603 | 149.19434 | 1882 ft | 2 kts | 316° |
| 2026-05-05 08:15 | -35.32107 | 149.19443 | 2041 ft | 16 kts | 359° |
| 2026-05-05 08:15 | -35.31304 | 149.19444 | 1902 ft | 16 kts | 360° |
| 2026-05-05 08:15 | -35.30584 | 149.19445 | 1886 ft | 16 kts | 359° |
| 2026-05-05 08:15 | -35.30333 | 149.19449 | 1883 ft | 16 kts | 1° |
| 2026-05-05 08:16 | -35.32048 | 149.19443 | 2030 ft | 16 kts | 358° |
| 2026-05-05 08:16 | -35.31429 | 149.19444 | 1914 ft | 16 kts | 0° |